sensor_id;sensor_type;location;lat;lon;timestamp;temperature;humidity
19152;DHT22;9708;53.114;9.388;2023-11-21T00:00:21;9.70;99.90
19152;DHT22;9708;53.114;9.388;2023-11-21T00:02:48;9.70;99.90
19152;DHT22;9708;53.114;9.388;2023-11-21T00:05:16;9.70;99.90
19152;DHT22;9708;53.114;9.388;2023-11-21T00:07:43;9.70;99.90
19152;DHT22;9708;53.114;9.388;2023-11-21T00:10:10;9.70;99.90
19152;DHT22;9708;53.114;9.388;2023-11-21T00:12:39;9.70;99.90
19152;DHT22;9708;53.114;9.388;2023-11-21T00:15:08;9.70;99.90
19152;DHT22;9708;53.114;9.388;2023-11-21T00:17:37;9.70;99.90
19152;DHT22;9708;53.114;9.388;2023-11-21T00:20:06;9.70;99.90
19152;DHT22;9708;53.114;9.388;2023-11-21T00:22:33;9.70;99.90
19152;DHT22;9708;53.114;9.388;2023-11-21T00:25:00;9.70;99.90
19152;DHT22;9708;53.114;9.388;2023-11-21T00:27:26;9.80;99.90
19152;DHT22;9708;53.114;9.388;2023-11-21T00:29:53;9.80;99.90
19152;DHT22;9708;53.114;9.388;2023-11-21T00:32:20;9.70;99.90
19152;DHT22;9708;53.114;9.388;2023-11-21T00:34:48;9.80;99.90
19152;DHT22;9708;53.114;9.388;2023-11-21T00:37:15;9.80;99.90
19152;DHT22;9708;53.114;9.388;2023-11-21T00:39:42;9.90;99.90
19152;DHT22;9708;53.114;9.388;2023-11-21T00:42:08;9.80;99.90
19152;DHT22;9708;53.114;9.388;2023-11-21T00:44:37;9.70;99.90
19152;DHT22;9708;53.114;9.388;2023-11-21T00:47:04;9.80;99.90
19152;DHT22;9708;53.114;9.388;2023-11-21T00:49:31;9.80;99.90
19152;DHT22;9708;53.114;9.388;2023-11-21T00:52:00;9.80;99.90
19152;DHT22;9708;53.114;9.388;2023-11-21T00:54:27;9.80;99.90
19152;DHT22;9708;53.114;9.388;2023-11-21T00:56:54;9.80;99.90
19152;DHT22;9708;53.114;9.388;2023-11-21T00:59:21;9.80;99.90
19152;DHT22;9708;53.114;9.388;2023-11-21T01:01:48;9.80;99.90
19152;DHT22;9708;53.114;9.388;2023-11-21T01:04:15;9.90;99.90
19152;DHT22;9708;53.114;9.388;2023-11-21T01:06:42;9.90;99.90
19152;DHT22;9708;53.114;9.388;2023-11-21T01:09:10;9.80;99.90
19152;DHT22;9708;53.114;9.388;2023-11-21T01:11:38;9.90;99.90
19152;DHT22;9708;53.114;9.388;2023-11-21T01:14:05;9.90;99.90
19152;DHT22;9708;53.114;9.388;2023-11-21T01:16:32;9.90;99.90
19152;DHT22;9708;53.114;9.388;2023-11-21T01:18:59;9.80;99.90
19152;DHT22;9708;53.114;9.388;2023-11-21T01:21:26;9.90;99.90
19152;DHT22;9708;53.114;9.388;2023-11-21T01:23:54;9.80;99.90
19152;DHT22;9708;53.114;9.388;2023-11-21T01:26:23;9.70;99.90
19152;DHT22;9708;53.114;9.388;2023-11-21T01:28:49;9.80;99.90
19152;DHT22;9708;53.114;9.388;2023-11-21T01:31:16;9.70;99.90
19152;DHT22;9708;53.114;9.388;2023-11-21T01:33:43;9.80;99.90
19152;DHT22;9708;53.114;9.388;2023-11-21T01:36:10;9.80;99.90
19152;DHT22;9708;53.114;9.388;2023-11-21T01:38:37;9.70;99.90
19152;DHT22;9708;53.114;9.388;2023-11-21T01:41:05;9.80;99.90
19152;DHT22;9708;53.114;9.388;2023-11-21T01:43:33;9.80;99.90
19152;DHT22;9708;53.114;9.388;2023-11-21T01:46:00;9.70;99.90
19152;DHT22;9708;53.114;9.388;2023-11-21T01:48:27;9.70;99.90
19152;DHT22;9708;53.114;9.388;2023-11-21T01:50:55;9.80;99.90
19152;DHT22;9708;53.114;9.388;2023-11-21T01:53:23;9.70;99.90
19152;DHT22;9708;53.114;9.388;2023-11-21T01:55:51;9.70;99.90
19152;DHT22;9708;53.114;9.388;2023-11-21T01:58:19;9.80;99.90
19152;DHT22;9708;53.114;9.388;2023-11-21T02:00:48;9.80;99.90
19152;DHT22;9708;53.114;9.388;2023-11-21T02:03:16;9.90;99.90
19152;DHT22;9708;53.114;9.388;2023-11-21T02:05:43;9.80;99.90
19152;DHT22;9708;53.114;9.388;2023-11-21T02:08:10;9.80;99.90
19152;DHT22;9708;53.114;9.388;2023-11-21T02:10:37;9.80;99.90
19152;DHT22;9708;53.114;9.388;2023-11-21T02:13:04;9.80;99.90
19152;DHT22;9708;53.114;9.388;2023-11-21T02:15:31;9.80;99.90
19152;DHT22;9708;53.114;9.388;2023-11-21T02:18:00;9.80;99.90
19152;DHT22;9708;53.114;9.388;2023-11-21T02:20:28;9.70;99.90
19152;DHT22;9708;53.114;9.388;2023-11-21T02:22:57;9.80;99.90
19152;DHT22;9708;53.114;9.388;2023-11-21T02:25:25;9.80;99.90
19152;DHT22;9708;53.114;9.388;2023-11-21T02:27:53;9.70;99.90
19152;DHT22;9708;53.114;9.388;2023-11-21T02:30:20;9.80;99.90
19152;DHT22;9708;53.114;9.388;2023-11-21T02:32:47;9.80;99.90
19152;DHT22;9708;53.114;9.388;2023-11-21T02:35:15;9.80;99.90
19152;DHT22;9708;53.114;9.388;2023-11-21T02:37:42;9.80;99.90
19152;DHT22;9708;53.114;9.388;2023-11-21T02:40:11;9.70;99.90
19152;DHT22;9708;53.114;9.388;2023-11-21T02:42:39;9.70;99.90
19152;DHT22;9708;53.114;9.388;2023-11-21T02:45:07;9.70;99.90
19152;DHT22;9708;53.114;9.388;2023-11-21T02:47:34;9.60;99.90
19152;DHT22;9708;53.114;9.388;2023-11-21T02:50:01;9.60;99.90
19152;DHT22;9708;53.114;9.388;2023-11-21T02:52:28;9.60;99.90
19152;DHT22;9708;53.114;9.388;2023-11-21T02:54:54;9.60;99.90
19152;DHT22;9708;53.114;9.388;2023-11-21T02:57:22;9.60;99.90
19152;DHT22;9708;53.114;9.388;2023-11-21T02:59:49;9.60;99.90
19152;DHT22;9708;53.114;9.388;2023-11-21T03:02:16;9.40;99.90
19152;DHT22;9708;53.114;9.388;2023-11-21T03:04:43;9.40;99.90
19152;DHT22;9708;53.114;9.388;2023-11-21T03:07:10;9.40;99.90
19152;DHT22;9708;53.114;9.388;2023-11-21T03:09:36;9.20;99.90
19152;DHT22;9708;53.114;9.388;2023-11-21T03:12:04;9.20;99.90
19152;DHT22;9708;53.114;9.388;2023-11-21T03:14:33;9.10;99.90
19152;DHT22;9708;53.114;9.388;2023-11-21T03:16:59;9.10;99.90
19152;DHT22;9708;53.114;9.388;2023-11-21T03:19:26;9.00;99.90
19152;DHT22;9708;53.114;9.388;2023-11-21T03:21:53;9.00;99.90
19152;DHT22;9708;53.114;9.388;2023-11-21T03:24:19;8.90;99.90
19152;DHT22;9708;53.114;9.388;2023-11-21T03:26:48;8.90;99.90
19152;DHT22;9708;53.114;9.388;2023-11-21T03:29:15;9.00;99.90
19152;DHT22;9708;53.114;9.388;2023-11-21T03:31:43;8.90;99.90
19152;DHT22;9708;53.114;9.388;2023-11-21T03:34:15;8.80;99.90
19152;DHT22;9708;53.114;9.388;2023-11-21T03:36:43;8.90;99.90
19152;DHT22;9708;53.114;9.388;2023-11-21T03:39:11;8.90;99.90
19152;DHT22;9708;53.114;9.388;2023-11-21T03:41:38;8.80;99.90
19152;DHT22;9708;53.114;9.388;2023-11-21T03:44:05;8.70;99.90
19152;DHT22;9708;53.114;9.388;2023-11-21T03:46:32;8.60;99.90
19152;DHT22;9708;53.114;9.388;2023-11-21T03:49:00;8.50;99.90
19152;DHT22;9708;53.114;9.388;2023-11-21T03:51:26;8.50;99.90
19152;DHT22;9708;53.114;9.388;2023-11-21T03:53:53;8.40;99.90
19152;DHT22;9708;53.114;9.388;2023-11-21T03:56:20;8.30;99.90
19152;DHT22;9708;53.114;9.388;2023-11-21T03:58:48;8.30;99.90
19152;DHT22;9708;53.114;9.388;2023-11-21T04:01:20;8.40;99.90
19152;DHT22;9708;53.114;9.388;2023-11-21T04:03:48;8.30;99.90
19152;DHT22;9708;53.114;9.388;2023-11-21T04:06:16;8.30;99.90
19152;DHT22;9708;53.114;9.388;2023-11-21T04:08:43;8.20;99.90
19152;DHT22;9708;53.114;9.388;2023-11-21T04:11:10;8.20;99.90
19152;DHT22;9708;53.114;9.388;2023-11-21T04:13:38;8.20;99.90
19152;DHT22;9708;53.114;9.388;2023-11-21T04:16:06;8.20;99.90
19152;DHT22;9708;53.114;9.388;2023-11-21T04:18:33;8.20;99.90
19152;DHT22;9708;53.114;9.388;2023-11-21T04:21:00;8.20;99.90
19152;DHT22;9708;53.114;9.388;2023-11-21T04:23:29;8.20;99.90
19152;DHT22;9708;53.114;9.388;2023-11-21T04:25:57;8.20;99.90
19152;DHT22;9708;53.114;9.388;2023-11-21T04:28:24;8.20;99.90
19152;DHT22;9708;53.114;9.388;2023-11-21T04:30:51;8.30;99.90
19152;DHT22;9708;53.114;9.388;2023-11-21T04:33:18;8.30;99.90
19152;DHT22;9708;53.114;9.388;2023-11-21T04:35:45;8.20;99.90
19152;DHT22;9708;53.114;9.388;2023-11-21T04:38:12;8.20;99.90
19152;DHT22;9708;53.114;9.388;2023-11-21T04:40:40;8.20;99.90
19152;DHT22;9708;53.114;9.388;2023-11-21T04:43:06;8.10;99.90
19152;DHT22;9708;53.114;9.388;2023-11-21T04:45:33;8.00;99.90
19152;DHT22;9708;53.114;9.388;2023-11-21T04:48:00;8.00;99.90
19152;DHT22;9708;53.114;9.388;2023-11-21T04:50:27;7.90;99.90
19152;DHT22;9708;53.114;9.388;2023-11-21T04:52:53;7.80;99.90
19152;DHT22;9708;53.114;9.388;2023-11-21T04:55:20;7.90;99.90
19152;DHT22;9708;53.114;9.388;2023-11-21T04:57:48;7.90;99.90
19152;DHT22;9708;53.114;9.388;2023-11-21T05:00:15;7.80;99.90
19152;DHT22;9708;53.114;9.388;2023-11-21T05:02:42;7.80;99.90
19152;DHT22;9708;53.114;9.388;2023-11-21T05:05:10;7.80;99.90
19152;DHT22;9708;53.114;9.388;2023-11-21T05:07:38;7.80;99.90
19152;DHT22;9708;53.114;9.388;2023-11-21T05:10:05;7.70;99.90
19152;DHT22;9708;53.114;9.388;2023-11-21T05:12:36;7.70;99.90
19152;DHT22;9708;53.114;9.388;2023-11-21T05:15:06;7.70;99.90
19152;DHT22;9708;53.114;9.388;2023-11-21T05:17:35;7.60;99.90
19152;DHT22;9708;53.114;9.388;2023-11-21T05:20:02;7.60;99.90
19152;DHT22;9708;53.114;9.388;2023-11-21T05:22:33;7.60;99.90
19152;DHT22;9708;53.114;9.388;2023-11-21T05:25:00;7.50;99.90
19152;DHT22;9708;53.114;9.388;2023-11-21T05:27:28;7.40;99.90
19152;DHT22;9708;53.114;9.388;2023-11-21T05:29:55;7.40;99.90
19152;DHT22;9708;53.114;9.388;2023-11-21T05:32:23;7.40;99.90
19152;DHT22;9708;53.114;9.388;2023-11-21T05:34:50;7.40;99.90
19152;DHT22;9708;53.114;9.388;2023-11-21T05:37:16;7.40;99.90
19152;DHT22;9708;53.114;9.388;2023-11-21T05:39:44;7.30;99.90
19152;DHT22;9708;53.114;9.388;2023-11-21T05:42:10;7.30;99.90
19152;DHT22;9708;53.114;9.388;2023-11-21T05:44:37;7.30;99.90
19152;DHT22;9708;53.114;9.388;2023-11-21T05:47:07;7.30;99.90
19152;DHT22;9708;53.114;9.388;2023-11-21T05:49:35;7.40;99.90
19152;DHT22;9708;53.114;9.388;2023-11-21T05:52:02;7.40;99.90
19152;DHT22;9708;53.114;9.388;2023-11-21T05:54:30;7.40;99.90
19152;DHT22;9708;53.114;9.388;2023-11-21T05:56:57;7.40;99.90
19152;DHT22;9708;53.114;9.388;2023-11-21T05:59:24;7.40;99.90
19152;DHT22;9708;53.114;9.388;2023-11-21T06:01:50;7.30;99.90
19152;DHT22;9708;53.114;9.388;2023-11-21T06:04:17;7.40;99.90
19152;DHT22;9708;53.114;9.388;2023-11-21T06:06:45;7.40;99.90
19152;DHT22;9708;53.114;9.388;2023-11-21T06:09:12;7.30;99.90
19152;DHT22;9708;53.114;9.388;2023-11-21T06:11:39;7.30;99.90
19152;DHT22;9708;53.114;9.388;2023-11-21T06:14:06;7.20;99.90
19152;DHT22;9708;53.114;9.388;2023-11-21T06:16:35;7.20;99.90
19152;DHT22;9708;53.114;9.388;2023-11-21T06:19:01;7.20;99.90
19152;DHT22;9708;53.114;9.388;2023-11-21T06:21:28;7.10;99.90
19152;DHT22;9708;53.114;9.388;2023-11-21T06:23:56;7.10;99.90
19152;DHT22;9708;53.114;9.388;2023-11-21T06:26:23;7.10;99.90
19152;DHT22;9708;53.114;9.388;2023-11-21T06:28:51;7.10;99.90
19152;DHT22;9708;53.114;9.388;2023-11-21T06:31:18;7.10;99.90
19152;DHT22;9708;53.114;9.388;2023-11-21T06:33:45;7.00;99.90
19152;DHT22;9708;53.114;9.388;2023-11-21T06:36:12;7.10;99.90
19152;DHT22;9708;53.114;9.388;2023-11-21T06:38:38;7.00;99.90
19152;DHT22;9708;53.114;9.388;2023-11-21T06:41:07;7.10;99.90
19152;DHT22;9708;53.114;9.388;2023-11-21T06:43:34;7.10;99.90
19152;DHT22;9708;53.114;9.388;2023-11-21T06:46:01;7.00;99.90
19152;DHT22;9708;53.114;9.388;2023-11-21T06:48:30;7.00;99.90
19152;DHT22;9708;53.114;9.388;2023-11-21T06:50:56;7.00;99.90
19152;DHT22;9708;53.114;9.388;2023-11-21T06:53:23;7.00;99.90
19152;DHT22;9708;53.114;9.388;2023-11-21T06:55:50;7.00;99.90
19152;DHT22;9708;53.114;9.388;2023-11-21T06:58:18;7.00;99.90
19152;DHT22;9708;53.114;9.388;2023-11-21T07:00:45;7.00;99.90
19152;DHT22;9708;53.114;9.388;2023-11-21T07:03:14;6.90;99.90
19152;DHT22;9708;53.114;9.388;2023-11-21T07:05:40;6.90;99.90
19152;DHT22;9708;53.114;9.388;2023-11-21T07:08:07;7.00;99.90
19152;DHT22;9708;53.114;9.388;2023-11-21T07:10:34;6.90;99.90
19152;DHT22;9708;53.114;9.388;2023-11-21T07:13:02;7.00;99.90
19152;DHT22;9708;53.114;9.388;2023-11-21T07:15:30;7.00;99.90
19152;DHT22;9708;53.114;9.388;2023-11-21T07:17:57;7.00;99.90
19152;DHT22;9708;53.114;9.388;2023-11-21T07:20:23;7.00;99.90
19152;DHT22;9708;53.114;9.388;2023-11-21T07:22:50;7.00;99.90
19152;DHT22;9708;53.114;9.388;2023-11-21T07:25:17;7.00;99.90
19152;DHT22;9708;53.114;9.388;2023-11-21T07:27:44;7.00;99.90
19152;DHT22;9708;53.114;9.388;2023-11-21T07:30:12;7.00;99.90
19152;DHT22;9708;53.114;9.388;2023-11-21T07:32:40;7.10;99.90
19152;DHT22;9708;53.114;9.388;2023-11-21T07:35:08;7.10;99.90
19152;DHT22;9708;53.114;9.388;2023-11-21T07:37:34;7.10;99.90
19152;DHT22;9708;53.114;9.388;2023-11-21T07:40:01;7.20;99.90
19152;DHT22;9708;53.114;9.388;2023-11-21T07:42:28;7.20;99.90
19152;DHT22;9708;53.114;9.388;2023-11-21T07:44:55;7.20;99.90
19152;DHT22;9708;53.114;9.388;2023-11-21T07:47:22;7.10;99.90
19152;DHT22;9708;53.114;9.388;2023-11-21T07:49:54;7.10;99.90
19152;DHT22;9708;53.114;9.388;2023-11-21T07:52:21;7.10;99.90
19152;DHT22;9708;53.114;9.388;2023-11-21T07:54:48;7.10;99.90
19152;DHT22;9708;53.114;9.388;2023-11-21T07:57:15;7.10;99.90
19152;DHT22;9708;53.114;9.388;2023-11-21T07:59:42;7.10;99.90
19152;DHT22;9708;53.114;9.388;2023-11-21T08:02:09;7.10;99.90
19152;DHT22;9708;53.114;9.388;2023-11-21T08:04:36;7.10;99.90
19152;DHT22;9708;53.114;9.388;2023-11-21T08:07:04;7.10;99.90
19152;DHT22;9708;53.114;9.388;2023-11-21T08:09:31;7.20;99.90
19152;DHT22;9708;53.114;9.388;2023-11-21T08:12:00;7.20;99.90
19152;DHT22;9708;53.114;9.388;2023-11-21T08:14:28;7.20;99.90
19152;DHT22;9708;53.114;9.388;2023-11-21T08:16:54;7.20;99.90
19152;DHT22;9708;53.114;9.388;2023-11-21T08:19:23;7.30;99.90
19152;DHT22;9708;53.114;9.388;2023-11-21T08:21:50;7.30;99.90
19152;DHT22;9708;53.114;9.388;2023-11-21T08:24:21;7.30;99.90
19152;DHT22;9708;53.114;9.388;2023-11-21T08:26:48;7.30;99.90
19152;DHT22;9708;53.114;9.388;2023-11-21T08:29:15;7.30;99.90
19152;DHT22;9708;53.114;9.388;2023-11-21T08:31:42;7.40;99.90
19152;DHT22;9708;53.114;9.388;2023-11-21T08:34:10;7.40;99.90
19152;DHT22;9708;53.114;9.388;2023-11-21T08:36:41;7.40;99.90
19152;DHT22;9708;53.114;9.388;2023-11-21T08:39:07;7.50;99.90
19152;DHT22;9708;53.114;9.388;2023-11-21T08:41:36;7.50;99.90
19152;DHT22;9708;53.114;9.388;2023-11-21T08:44:03;7.50;99.90
19152;DHT22;9708;53.114;9.388;2023-11-21T08:46:32;7.50;99.90
19152;DHT22;9708;53.114;9.388;2023-11-21T08:49:00;7.60;99.90
19152;DHT22;9708;53.114;9.388;2023-11-21T08:51:27;7.60;99.90
19152;DHT22;9708;53.114;9.388;2023-11-21T08:53:54;7.60;99.90
19152;DHT22;9708;53.114;9.388;2023-11-21T08:56:25;7.60;99.90
19152;DHT22;9708;53.114;9.388;2023-11-21T08:58:53;7.70;99.90
19152;DHT22;9708;53.114;9.388;2023-11-21T09:01:20;7.70;99.90
19152;DHT22;9708;53.114;9.388;2023-11-21T09:03:47;7.80;99.90
19152;DHT22;9708;53.114;9.388;2023-11-21T09:06:15;7.90;99.90
19152;DHT22;9708;53.114;9.388;2023-11-21T09:08:42;7.90;99.90
19152;DHT22;9708;53.114;9.388;2023-11-21T09:11:09;7.90;99.90
19152;DHT22;9708;53.114;9.388;2023-11-21T09:13:35;7.90;99.90
19152;DHT22;9708;53.114;9.388;2023-11-21T09:16:04;7.90;99.90
19152;DHT22;9708;53.114;9.388;2023-11-21T09:18:32;8.00;99.90
19152;DHT22;9708;53.114;9.388;2023-11-21T09:20:58;7.90;99.90
19152;DHT22;9708;53.114;9.388;2023-11-21T09:23:25;8.00;99.90
19152;DHT22;9708;53.114;9.388;2023-11-21T09:25:52;8.20;99.90
19152;DHT22;9708;53.114;9.388;2023-11-21T09:28:22;8.20;99.90
19152;DHT22;9708;53.114;9.388;2023-11-21T09:30:49;8.20;99.90
19152;DHT22;9708;53.114;9.388;2023-11-21T09:33:17;8.30;99.90
19152;DHT22;9708;53.114;9.388;2023-11-21T09:35:44;8.20;99.90
19152;DHT22;9708;53.114;9.388;2023-11-21T09:38:11;8.20;99.90
19152;DHT22;9708;53.114;9.388;2023-11-21T09:40:38;8.20;99.90
19152;DHT22;9708;53.114;9.388;2023-11-21T09:43:07;8.20;99.90
19152;DHT22;9708;53.114;9.388;2023-11-21T09:45:39;8.20;99.90
19152;DHT22;9708;53.114;9.388;2023-11-21T09:48:07;8.20;99.90
19152;DHT22;9708;53.114;9.388;2023-11-21T09:50:37;8.30;99.90
19152;DHT22;9708;53.114;9.388;2023-11-21T09:53:11;8.30;99.90
19152;DHT22;9708;53.114;9.388;2023-11-21T09:55:43;8.40;99.90
19152;DHT22;9708;53.114;9.388;2023-11-21T09:58:10;8.50;99.90
19152;DHT22;9708;53.114;9.388;2023-11-21T10:00:40;8.50;99.90
19152;DHT22;9708;53.114;9.388;2023-11-21T10:03:07;8.50;99.90
19152;DHT22;9708;53.114;9.388;2023-11-21T10:05:35;8.60;99.90
19152;DHT22;9708;53.114;9.388;2023-11-21T10:08:04;8.70;99.90
19152;DHT22;9708;53.114;9.388;2023-11-21T10:10:33;8.90;99.90
19152;DHT22;9708;53.114;9.388;2023-11-21T10:13:03;9.10;99.90
19152;DHT22;9708;53.114;9.388;2023-11-21T10:15:33;9.00;99.90
19152;DHT22;9708;53.114;9.388;2023-11-21T10:18:02;9.00;99.90
19152;DHT22;9708;53.114;9.388;2023-11-21T10:20:32;9.00;99.90
19152;DHT22;9708;53.114;9.388;2023-11-21T10:23:00;9.10;99.90
19152;DHT22;9708;53.114;9.388;2023-11-21T10:25:29;9.20;99.90
19152;DHT22;9708;53.114;9.388;2023-11-21T10:27:58;9.10;99.90
19152;DHT22;9708;53.114;9.388;2023-11-21T10:30:30;9.10;99.90
19152;DHT22;9708;53.114;9.388;2023-11-21T10:32:59;9.10;99.90
19152;DHT22;9708;53.114;9.388;2023-11-21T10:35:38;9.20;99.90
19152;DHT22;9708;53.114;9.388;2023-11-21T10:38:07;9.20;99.90
19152;DHT22;9708;53.114;9.388;2023-11-21T10:40:37;9.00;99.90
19152;DHT22;9708;53.114;9.388;2023-11-21T10:43:07;9.00;99.90
19152;DHT22;9708;53.114;9.388;2023-11-21T10:45:36;8.80;99.90
19152;DHT22;9708;53.114;9.388;2023-11-21T10:48:05;8.80;99.90
19152;DHT22;9708;53.114;9.388;2023-11-21T10:50:33;8.80;99.90
19152;DHT22;9708;53.114;9.388;2023-11-21T10:53:02;8.90;99.90
19152;DHT22;9708;53.114;9.388;2023-11-21T10:55:31;8.70;99.90
19152;DHT22;9708;53.114;9.388;2023-11-21T10:58:00;8.70;99.90
19152;DHT22;9708;53.114;9.388;2023-11-21T11:00:28;8.70;99.90
19152;DHT22;9708;53.114;9.388;2023-11-21T11:02:55;8.70;99.90
19152;DHT22;9708;53.114;9.388;2023-11-21T11:05:23;8.70;99.90
19152;DHT22;9708;53.114;9.388;2023-11-21T11:07:52;8.80;99.90
19152;DHT22;9708;53.114;9.388;2023-11-21T11:10:20;8.80;99.90
19152;DHT22;9708;53.114;9.388;2023-11-21T11:12:49;8.90;99.90
19152;DHT22;9708;53.114;9.388;2023-11-21T11:15:18;9.00;99.90
19152;DHT22;9708;53.114;9.388;2023-11-21T11:17:46;8.90;99.90
19152;DHT22;9708;53.114;9.388;2023-11-21T11:20:15;9.00;99.90
19152;DHT22;9708;53.114;9.388;2023-11-21T11:22:50;9.00;99.90
19152;DHT22;9708;53.114;9.388;2023-11-21T11:25:28;9.10;99.90
19152;DHT22;9708;53.114;9.388;2023-11-21T11:28:04;9.20;99.90
19152;DHT22;9708;53.114;9.388;2023-11-21T11:30:40;9.30;99.90
19152;DHT22;9708;53.114;9.388;2023-11-21T11:33:19;9.20;99.90
19152;DHT22;9708;53.114;9.388;2023-11-21T11:35:54;9.30;99.90
19152;DHT22;9708;53.114;9.388;2023-11-21T11:38:23;9.50;99.90
19152;DHT22;9708;53.114;9.388;2023-11-21T11:40:53;9.60;99.90
19152;DHT22;9708;53.114;9.388;2023-11-21T11:43:26;9.80;99.90
19152;DHT22;9708;53.114;9.388;2023-11-21T11:45:55;9.70;99.90
19152;DHT22;9708;53.114;9.388;2023-11-21T11:48:22;9.60;99.90
19152;DHT22;9708;53.114;9.388;2023-11-21T11:51:03;9.50;99.90
19152;DHT22;9708;53.114;9.388;2023-11-21T11:53:35;9.40;99.90
19152;DHT22;9708;53.114;9.388;2023-11-21T11:56:26;9.20;99.90
19152;DHT22;9708;53.114;9.388;2023-11-21T11:58:56;9.10;99.90
19152;DHT22;9708;53.114;9.388;2023-11-21T12:01:25;9.00;99.90
19152;DHT22;9708;53.114;9.388;2023-11-21T12:04:23;9.00;99.90
19152;DHT22;9708;53.114;9.388;2023-11-21T12:06:56;9.00;99.90
19152;DHT22;9708;53.114;9.388;2023-11-21T12:09:25;9.10;99.90
19152;DHT22;9708;53.114;9.388;2023-11-21T12:11:53;9.20;99.90
19152;DHT22;9708;53.114;9.388;2023-11-21T12:14:23;9.30;99.90
19152;DHT22;9708;53.114;9.388;2023-11-21T12:16:50;9.40;99.90
19152;DHT22;9708;53.114;9.388;2023-11-21T12:19:18;9.60;99.90
19152;DHT22;9708;53.114;9.388;2023-11-21T12:21:46;9.70;99.90
19152;DHT22;9708;53.114;9.388;2023-11-21T12:24:14;9.40;99.90
19152;DHT22;9708;53.114;9.388;2023-11-21T12:26:42;9.30;99.90
19152;DHT22;9708;53.114;9.388;2023-11-21T12:29:09;9.20;99.90
19152;DHT22;9708;53.114;9.388;2023-11-21T12:31:37;9.30;99.90
19152;DHT22;9708;53.114;9.388;2023-11-21T12:34:04;9.30;99.90
19152;DHT22;9708;53.114;9.388;2023-11-21T12:36:32;9.30;99.90
19152;DHT22;9708;53.114;9.388;2023-11-21T12:39:00;9.20;99.90
19152;DHT22;9708;53.114;9.388;2023-11-21T12:41:28;9.10;99.90
19152;DHT22;9708;53.114;9.388;2023-11-21T12:43:56;9.00;99.90
19152;DHT22;9708;53.114;9.388;2023-11-21T12:46:24;9.00;99.90
19152;DHT22;9708;53.114;9.388;2023-11-21T12:48:56;9.00;99.90
19152;DHT22;9708;53.114;9.388;2023-11-21T12:51:23;9.10;99.90
19152;DHT22;9708;53.114;9.388;2023-11-21T12:53:50;9.00;99.90
19152;DHT22;9708;53.114;9.388;2023-11-21T12:56:18;8.90;99.90
19152;DHT22;9708;53.114;9.388;2023-11-21T12:58:49;8.90;99.90
19152;DHT22;9708;53.114;9.388;2023-11-21T13:01:17;8.90;99.90
19152;DHT22;9708;53.114;9.388;2023-11-21T13:03:47;8.80;99.90
19152;DHT22;9708;53.114;9.388;2023-11-21T13:06:18;8.90;99.90
19152;DHT22;9708;53.114;9.388;2023-11-21T13:08:50;8.90;99.90
19152;DHT22;9708;53.114;9.388;2023-11-21T13:11:17;9.00;99.90
19152;DHT22;9708;53.114;9.388;2023-11-21T13:13:44;9.00;99.90
19152;DHT22;9708;53.114;9.388;2023-11-21T13:16:11;8.90;99.90
19152;DHT22;9708;53.114;9.388;2023-11-21T13:18:38;8.90;99.90
19152;DHT22;9708;53.114;9.388;2023-11-21T13:21:08;8.80;99.90
19152;DHT22;9708;53.114;9.388;2023-11-21T13:23:41;8.80;99.90
19152;DHT22;9708;53.114;9.388;2023-11-21T13:26:08;8.70;99.90
19152;DHT22;9708;53.114;9.388;2023-11-21T13:28:36;8.70;99.90
19152;DHT22;9708;53.114;9.388;2023-11-21T13:31:04;8.60;99.90
19152;DHT22;9708;53.114;9.388;2023-11-21T13:33:47;8.70;99.90
19152;DHT22;9708;53.114;9.388;2023-11-21T13:36:21;8.70;99.90
19152;DHT22;9708;53.114;9.388;2023-11-21T13:38:50;8.70;99.90
19152;DHT22;9708;53.114;9.388;2023-11-21T13:41:19;8.70;99.90
19152;DHT22;9708;53.114;9.388;2023-11-21T13:43:47;8.70;99.90
19152;DHT22;9708;53.114;9.388;2023-11-21T13:46:22;8.60;99.90
19152;DHT22;9708;53.114;9.388;2023-11-21T13:48:49;8.50;99.90
19152;DHT22;9708;53.114;9.388;2023-11-21T13:51:21;8.60;99.90
19152;DHT22;9708;53.114;9.388;2023-11-21T13:53:57;8.40;99.90
19152;DHT22;9708;53.114;9.388;2023-11-21T13:56:24;8.40;99.90
19152;DHT22;9708;53.114;9.388;2023-11-21T13:58:54;8.30;99.90
19152;DHT22;9708;53.114;9.388;2023-11-21T14:01:22;8.40;99.90
19152;DHT22;9708;53.114;9.388;2023-11-21T14:04:10;8.30;99.90
19152;DHT22;9708;53.114;9.388;2023-11-21T14:06:46;8.30;99.90
19152;DHT22;9708;53.114;9.388;2023-11-21T14:09:16;8.30;99.90
19152;DHT22;9708;53.114;9.388;2023-11-21T14:11:49;8.40;99.90
19152;DHT22;9708;53.114;9.388;2023-11-21T14:14:17;8.30;99.90
19152;DHT22;9708;53.114;9.388;2023-11-21T14:16:44;8.20;99.90
19152;DHT22;9708;53.114;9.388;2023-11-21T14:19:11;8.10;99.90
19152;DHT22;9708;53.114;9.388;2023-11-21T14:21:41;8.10;99.90
19152;DHT22;9708;53.114;9.388;2023-11-21T14:24:09;8.10;99.90
19152;DHT22;9708;53.114;9.388;2023-11-21T14:26:40;8.10;99.90
19152;DHT22;9708;53.114;9.388;2023-11-21T14:29:07;8.20;99.90
19152;DHT22;9708;53.114;9.388;2023-11-21T14:31:36;8.20;99.90
19152;DHT22;9708;53.114;9.388;2023-11-21T14:34:03;8.10;99.90
19152;DHT22;9708;53.114;9.388;2023-11-21T14:36:32;8.00;99.90
19152;DHT22;9708;53.114;9.388;2023-11-21T14:38:58;8.00;99.90
19152;DHT22;9708;53.114;9.388;2023-11-21T14:41:25;8.00;99.90
19152;DHT22;9708;53.114;9.388;2023-11-21T14:43:54;8.00;99.90
19152;DHT22;9708;53.114;9.388;2023-11-21T14:46:23;8.00;99.90
19152;DHT22;9708;53.114;9.388;2023-11-21T14:48:49;7.90;99.90
19152;DHT22;9708;53.114;9.388;2023-11-21T14:51:24;7.90;99.90
19152;DHT22;9708;53.114;9.388;2023-11-21T14:53:57;7.80;99.90
19152;DHT22;9708;53.114;9.388;2023-11-21T14:56:31;7.80;99.90
19152;DHT22;9708;53.114;9.388;2023-11-21T14:59:01;7.70;99.90
19152;DHT22;9708;53.114;9.388;2023-11-21T15:01:34;7.80;99.90
19152;DHT22;9708;53.114;9.388;2023-11-21T15:04:11;7.70;99.90
19152;DHT22;9708;53.114;9.388;2023-11-21T15:06:49;7.70;99.90
19152;DHT22;9708;53.114;9.388;2023-11-21T15:09:14;7.70;99.90
19152;DHT22;9708;53.114;9.388;2023-11-21T15:12:02;7.70;99.90
19152;DHT22;9708;53.114;9.388;2023-11-21T15:14:40;7.60;99.90
19152;DHT22;9708;53.114;9.388;2023-11-21T15:17:07;7.50;99.90
19152;DHT22;9708;53.114;9.388;2023-11-21T15:19:34;7.40;99.90
19152;DHT22;9708;53.114;9.388;2023-11-21T15:22:01;7.40;99.90
19152;DHT22;9708;53.114;9.388;2023-11-21T15:24:28;7.40;99.90
19152;DHT22;9708;53.114;9.388;2023-11-21T15:26:55;7.30;99.90
19152;DHT22;9708;53.114;9.388;2023-11-21T15:29:22;7.30;99.90
19152;DHT22;9708;53.114;9.388;2023-11-21T15:31:51;7.30;99.90
19152;DHT22;9708;53.114;9.388;2023-11-21T15:34:22;7.30;99.90
19152;DHT22;9708;53.114;9.388;2023-11-21T15:36:49;7.20;99.90
19152;DHT22;9708;53.114;9.388;2023-11-21T15:39:18;7.10;99.90
19152;DHT22;9708;53.114;9.388;2023-11-21T15:41:47;7.20;99.90
19152;DHT22;9708;53.114;9.388;2023-11-21T15:44:13;7.20;99.90
19152;DHT22;9708;53.114;9.388;2023-11-21T15:46:40;7.10;99.90
19152;DHT22;9708;53.114;9.388;2023-11-21T15:49:10;7.10;99.90
19152;DHT22;9708;53.114;9.388;2023-11-21T15:51:39;7.10;99.90
19152;DHT22;9708;53.114;9.388;2023-11-21T15:54:06;7.00;99.90
19152;DHT22;9708;53.114;9.388;2023-11-21T15:56:34;7.00;99.90
19152;DHT22;9708;53.114;9.388;2023-11-21T15:59:01;6.90;99.90
19152;DHT22;9708;53.114;9.388;2023-11-21T16:01:29;7.00;99.90
19152;DHT22;9708;53.114;9.388;2023-11-21T16:03:56;7.00;99.90
19152;DHT22;9708;53.114;9.388;2023-11-21T16:06:27;6.90;99.90
19152;DHT22;9708;53.114;9.388;2023-11-21T16:08:54;6.90;99.90